Time;durP1;ratioP1;P1;durP2;ratioP2;P2;SDS_P1;SDS_P2;PMS_P1;PMS_P2;Temp;Humidity;BMP_temperature;BMP_pressure;BME280_temperature;BME280_humidity;BME280_pressure;Samples;Min_cycle;Max_cycle;Signal;HPM_P1;HPM_P2
2022/04/18 00:04:23;;;;;;;4.47;2.28;;;;;;;18.31;27.36;97296.06;10342771;28;20045;-79
2022/04/18 00:09:43;;;;;;;2.83;2.30;;;;;;;18.29;27.24;97294.78;10339225;28;20053;-79
2022/04/18 00:15:02;;;;;;;3.05;2.25;;;;;;;18.25;27.48;97281.09;10324860;28;20050;-79
2022/04/18 00:20:22;;;;;;;3.13;2.83;;;;;;;18.21;27.33;97280.13;10316195;28;20042;-79
2022/04/18 00:25:41;;;;;;;2.65;2.38;;;;;;;18.20;27.39;97275.81;10334474;28;20057;-79
2022/04/18 00:31:01;;;;;;;3.95;2.75;;;;;;;18.17;27.31;97268.34;10328078;28;20125;-79
2022/04/18 00:36:21;;;;;;;3.45;2.50;;;;;;;18.14;27.46;97269.72;10337465;28;20386;-79
2022/04/18 00:41:41;;;;;;;3.70;2.42;;;;;;;18.10;27.27;97257.19;10321739;28;20417;-79
2022/04/18 00:47:01;;;;;;;3.30;2.60;;;;;;;18.07;27.22;97255.88;10328734;28;20047;-79
2022/04/18 00:52:20;;;;;;;3.25;2.45;;;;;;;18.03;27.27;97251.38;10327676;28;20049;-79
2022/04/18 00:57:40;;;;;;;4.03;2.70;;;;;;;18.00;27.34;97244.72;10336571;28;20129;-79
2022/04/18 01:03:01;;;;;;;3.25;2.50;;;;;;;17.98;27.36;97233.44;10315615;28;20042;-79
2022/04/18 01:08:22;;;;;;;4.22;2.70;;;;;;;17.94;27.34;97233.25;10326618;28;20064;-79
2022/04/18 01:13:44;;;;;;;3.38;2.90;;;;;;;17.92;27.30;97227.34;10342186;28;20449;-79
2022/04/18 01:19:24;;;;;;;3.47;2.72;;;;;;;17.88;27.34;97223.66;10316339;28;20042;-79
2022/04/18 01:30:45;;;;;;;4.68;2.95;;;;;;;17.81;27.09;97211.69;10327641;28;20062;-79
2022/04/18 01:36:06;;;;;;;3.17;2.80;;;;;;;17.77;27.34;97200.69;10323364;28;20061;-79
2022/04/18 01:41:26;;;;;;;3.20;2.80;;;;;;;17.75;27.29;97192.13;10293536;28;20057;-79
2022/04/18 01:46:46;;;;;;;3.63;2.58;;;;;;;17.71;27.41;97186.53;10327639;28;20038;-79
2022/04/18 01:52:06;;;;;;;3.65;2.70;;;;;;;17.68;27.32;97172.88;10327051;28;20110;-79
2022/04/18 01:57:26;;;;;;;3.70;2.60;;;;;;;17.65;27.23;97171.56;10287245;28;20660;-79
2022/04/18 02:02:46;;;;;;;3.53;2.67;;;;;;;17.61;27.51;97169.81;10314146;28;20038;-78
2022/04/18 02:08:06;;;;;;;3.60;2.53;;;;;;;17.58;27.72;97158.53;10338425;28;20042;-78
2022/04/18 02:13:28;;;;;;;2.97;2.50;;;;;;;17.57;27.59;97162.31;10349224;28;20050;-79
2022/04/18 02:18:48;;;;;;;4.70;2.80;;;;;;;17.56;27.90;97163.41;10325738;28;20056;-79
2022/04/18 02:24:08;;;;;;;;;;;;;;;17.56;27.73;97147.25;10334286;28;20097;-79
2022/04/18 02:29:27;;;;;;;5.15;2.88;;;;;;;17.55;28.13;97156.44;10334865;28;19925;-79
2022/04/18 02:34:47;;;;;;;3.78;2.83;;;;;;;17.51;27.74;97144.66;10331515;28;20052;-79
2022/04/18 02:40:08;;;;;;;4.95;3.83;;;;;;;17.47;28.02;97132.13;10346920;28;20230;-78
2022/04/18 02:45:30;;;;;;;5.15;3.70;;;;;;;17.43;28.13;97128.44;10347512;28;20423;-79
2022/04/18 02:50:58;;;;;;;4.28;3.05;;;;;;;17.42;28.42;97124.91;10323764;28;20061;-79
2022/04/18 02:56:21;;;;;;;5.18;3.40;;;;;;;17.39;28.49;97110.16;10323864;28;20046;-79
2022/04/18 03:01:43;;;;;;;4.38;3.38;;;;;;;17.38;28.63;97108.56;10320546;28;20054;-79
2022/04/18 03:07:02;;;;;;;3.85;3.25;;;;;;;17.38;28.63;97103.19;10330279;28;20101;-79
2022/04/18 03:12:22;;;;;;;3.72;3.08;;;;;;;17.37;28.77;97098.13;10319952;28;20039;-79
2022/04/18 03:17:42;;;;;;;5.25;3.80;;;;;;;17.36;28.88;97093.81;10321156;28;20084;-79
2022/04/18 03:23:02;;;;;;;4.45;3.42;;;;;;;17.34;28.90;97093.31;10346139;28;20050;-79
2022/04/18 03:28:40;;;;;;;5.10;3.63;;;;;;;17.32;29.02;97087.44;10344590;28;20040;-79
2022/04/18 03:34:00;;;;;;;4.72;3.40;;;;;;;17.30;29.08;97085.03;10331168;28;20329;-79
2022/04/18 03:45:02;;;;;;;5.50;3.73;;;;;;;17.26;29.08;97077.88;10313947;28;20036;-79
2022/04/18 03:50:21;;;;;;;5.40;3.60;;;;;;;17.26;29.47;97078.66;10343581;28;20405;-79
2022/04/18 03:55:41;;;;;;;3.72;3.35;;;;;;;17.25;29.59;97076.28;10345164;28;20050;-79
2022/04/18 04:01:10;;;;;;;4.78;3.25;;;;;;;17.24;29.83;97075.47;10319479;28;20050;-79
2022/04/18 04:06:30;;;;;;;5.13;2.83;;;;;;;17.26;29.94;97078.66;10317140;28;20039;-79
2022/04/18 04:11:51;;;;;;;3.97;3.20;;;;;;;17.28;30.06;97075.69;10316954;28;20034;-79
2022/04/18 04:17:12;;;;;;;4.20;3.15;;;;;;;17.30;29.96;97068.09;10298726;28;20053;-79
2022/04/18 04:22:34;;;;;;;4.10;3.10;;;;;;;17.33;30.08;97072.88;10316410;28;20078;-79
2022/04/18 04:28:12;;;;;;;3.78;3.10;;;;;;;17.36;30.17;97070.38;10330773;28;20485;-79
2022/04/18 04:33:33;;;;;;;3.58;2.78;;;;;;;17.40;30.28;97062.47;10368214;28;20041;-79
2022/04/18 04:38:54;;;;;;;4.03;3.17;;;;;;;17.44;30.42;97055.38;10399192;28;20698;-79
2022/04/18 04:44:21;;;;;;;4.13;3.25;;;;;;;17.48;30.29;97056.38;10360137;28;20044;-79
2022/04/18 04:49:50;;;;;;;3.80;3.10;;;;;;;17.53;30.36;97042.78;10369784;28;20038;-79
2022/04/18 04:55:16;;;;;;;3.67;2.97;;;;;;;17.59;30.37;97043.47;10370307;28;20547;-79
2022/04/18 05:00:39;;;;;;;3.40;2.92;;;;;;;17.64;30.12;97039.84;10358001;28;20057;-79
2022/04/18 05:06:10;;;;;;;5.15;3.65;;;;;;;17.69;30.26;97035.16;10334103;28;20835;-79
2022/04/18 05:11:36;;;;;;;4.57;3.17;;;;;;;17.76;30.39;97040.13;10352366;28;20050;-79
2022/04/18 05:16:56;;;;;;;3.65;3.15;;;;;;;17.82;30.15;97038.91;10341444;28;20041;-79
2022/04/18 05:22:31;;;;;;;4.05;3.13;;;;;;;17.88;30.30;97032.31;10331437;28;20045;-78
2022/04/18 05:27:51;;;;;;;4.07;3.50;;;;;;;17.97;30.34;97037.75;10356687;28;20038;-79
2022/04/18 05:33:23;;;;;;;4.18;3.38;;;;;;;18.03;30.00;97030.31;10331649;28;20089;-79
2022/04/18 05:39:15;;;;;;;3.70;2.92;;;;;;;18.11;29.84;97040.34;10373257;28;20054;-79
2022/04/18 05:44:38;;;;;;;4.82;3.13;;;;;;;18.17;29.88;97037.25;10344104;28;20535;-79
2022/04/18 05:49:58;;;;;;;3.92;3.30;;;;;;;18.22;28.70;97043.59;10373695;28;20424;-78
2022/04/18 05:55:18;;;;;;;5.03;3.30;;;;;;;18.15;28.12;97044.84;10361167;28;20046;-78
2022/04/18 06:00:38;;;;;;;5.97;3.90;;;;;;;18.09;27.72;97039.88;10357945;28;20484;-78
2022/04/18 06:05:57;;;;;;;3.80;3.45;;;;;;;18.03;27.67;97041.91;10342780;28;20461;-78
2022/04/18 06:11:17;;;;;;;3.72;3.33;;;;;;;18.02;27.71;97044.94;10348585;28;20044;-78
2022/04/18 06:16:42;;;;;;;4.93;3.90;;;;;;;17.99;27.45;97038.22;10361250;28;20424;-79
2022/04/18 06:22:03;;;;;;;4.03;3.20;;;;;;;17.99;27.64;97040.94;10353919;28;20095;-79
2022/04/18 06:27:23;;;;;;;4.30;3.50;;;;;;;17.98;27.54;97048.22;10360964;28;20085;-79
2022/04/18 06:32:43;;;;;;;4.40;3.28;;;;;;;17.98;27.46;97042.84;10363270;28;20049;-79
2022/04/18 06:38:03;;;;;;;4.18;3.00;;;;;;;17.99;27.62;97049.00;10335293;28;20046;-78
2022/04/18 06:43:50;;;;;;;3.10;2.80;;;;;;;17.97;27.72;97043.13;10334934;28;20042;-79
2022/04/18 06:49:11;;;;;;;4.03;3.15;;;;;;;17.97;27.84;97043.94;10375008;28;20037;-79
2022/04/18 06:55:04;;;;;;;7.35;3.78;;;;;;;17.98;27.61;97042.03;10337781;28;20104;-79
2022/04/18 07:00:24;;;;;;;4.00;3.47;;;;;;;17.99;27.87;97040.94;10355424;28;20555;-79
2022/04/18 07:05:44;;;;;;;7.30;4.03;;;;;;;18.00;27.89;97030.97;10294457;28;20042;-79
2022/04/18 07:11:04;;;;;;;6.70;4.47;;;;;;;18.00;28.08;97028.25;10388285;28;20038;-78
2022/04/18 07:16:24;;;;;;;5.53;4.10;;;;;;;18.01;28.13;97027.94;10354090;28;20050;-79
2022/04/18 07:21:44;;;;;;;6.60;4.13;;;;;;;18.02;28.08;97032.22;10306165;28;20042;-78
2022/04/18 07:27:04;;;;;;;5.53;4.40;;;;;;;18.02;28.30;97034.13;10302402;28;20093;-78
2022/04/18 07:32:26;;;;;;;5.68;4.30;;;;;;;18.03;28.31;97030.31;10332028;28;20054;-79
2022/04/18 07:43:27;;;;;;;5.23;4.07;;;;;;;18.03;29.10;97025.72;10332918;28;20384;-78
2022/04/18 07:48:49;;;;;;;6.00;4.00;;;;;;;18.05;29.06;97018.13;10312393;28;20046;-79
2022/04/18 07:54:20;;;;;;;5.93;3.67;;;;;;;18.13;29.53;97025.47;10312851;28;20038;-78
2022/04/18 07:59:41;;;;;;;4.63;3.80;;;;;;;18.21;29.56;97018.56;10358358;28;20053;-78
2022/04/18 08:05:01;;;;;;;4.55;3.60;;;;;;;18.27;29.72;97024.56;10362924;28;20434;-78
2022/04/18 08:10:38;;;;;;;4.47;3.33;;;;;;;18.30;30.10;97019.38;10345420;28;20050;-78
2022/04/18 08:16:01;;;;;;;5.15;3.42;;;;;;;18.33;29.97;97024.16;10318536;28;20125;-79
2022/04/18 08:21:32;;;;;;;3.63;2.95;;;;;;;18.35;30.31;97027.34;10355136;28;20042;-79
2022/04/18 08:26:52;;;;;;;5.03;3.40;;;;;;;18.37;30.38;97019.72;10335595;28;20042;-79
2022/04/18 08:32:17;;;;;;;4.53;3.00;;;;;;;18.36;30.79;97018.13;10365813;28;20049;-78
2022/04/18 08:37:37;;;;;;;4.18;3.10;;;;;;;18.37;30.63;97019.72;10340472;28;20042;-79
2022/04/18 08:43:17;;;;;;;5.35;3.40;;;;;;;18.39;30.95;97011.31;10317257;28;20065;-79
2022/04/18 08:54:22;;;;;;;4.10;2.90;;;;;;;18.40;30.96;97001.31;10351588;28;20044;-80
2022/04/18 08:59:42;;;;;;;3.00;2.70;;;;;;;18.40;31.13;97006.72;10350664;28;20050;-79
2022/04/18 09:05:02;;;;;;;3.85;2.92;;;;;;;18.38;31.35;96983.56;10341651;28;20072;-79
2022/04/18 09:10:23;;;;;;;3.47;2.88;;;;;;;18.40;31.13;96977.84;10353061;28;20581;-79
2022/04/18 09:15:46;;;;;;;3.45;2.70;;;;;;;18.40;31.21;96985.16;10340322;28;20069;-78
2022/04/18 09:21:06;;;;;;;4.22;2.70;;;;;;;18.38;31.13;96963.88;10361141;28;20413;-79
2022/04/18 09:26:32;;;;;;;2.97;2.35;;;;;;;18.37;31.16;96954.22;10320106;28;20043;-79
2022/04/18 09:31:53;;;;;;;2.83;2.50;;;;;;;18.37;31.59;96956.91;10346911;28;20481;-79
2022/04/18 09:37:21;;;;;;;2.78;2.30;;;;;;;18.36;31.50;96939.91;10330971;28;20105;-79
2022/04/18 09:42:44;;;;;;;2.90;2.25;;;;;;;18.36;31.59;96931.03;10355707;28;20112;-79
2022/04/18 09:48:16;;;;;;;2.35;2.03;;;;;;;18.34;31.65;96938.63;10345794;28;20511;-78
2022/04/18 09:53:41;;;;;;;3.25;2.28;;;;;;;18.34;31.79;96934.03;10345715;28;20041;-79
2022/04/18 09:59:02;;;;;;;2.67;2.22;;;;;;;18.34;32.00;96939.41;10361193;28;20567;-79
2022/04/18 10:04:22;;;;;;;2.25;2.00;;;;;;;18.34;31.70;96939.41;10354939;28;20034;-79
2022/04/18 10:09:42;;;;;;;2.40;2.13;;;;;;;18.34;32.01;96922.44;10352543;28;20038;-79
2022/04/18 10:15:03;;;;;;;2.15;1.90;;;;;;;18.33;31.93;96910.88;10364249;28;20096;-79
2022/04/18 10:20:51;;;;;;;2.30;2.10;;;;;;;18.33;31.88;96908.19;10368343;28;20041;-79
2022/04/18 10:26:25;;;;;;;2.08;1.70;;;;;;;18.32;31.90;96911.19;10372706;28;20041;-79
2022/04/18 10:31:46;;;;;;;2.00;1.80;;;;;;;18.31;32.00;96901.53;10353110;28;20523;-79
2022/04/18 10:37:06;;;;;;;2.17;1.70;;;;;;;18.31;31.98;96896.91;10343980;28;20428;-79
2022/04/18 10:42:36;;;;;;;2.33;1.98;;;;;;;18.30;32.02;96900.69;10348183;28;20092;-78
2022/04/18 10:47:58;;;;;;;1.80;1.70;;;;;;;18.30;31.97;96889.13;10357658;28;20156;-78
2022/04/18 10:53:24;;;;;;;1.83;1.60;;;;;;;18.30;31.99;96878.34;10365881;28;20460;-79
2022/04/18 10:58:44;;;;;;;1.98;1.50;;;;;;;18.29;31.86;96874.84;10350972;28;20057;-79
2022/04/18 11:04:07;;;;;;;1.95;1.67;;;;;;;18.28;31.92;96869.78;10374687;28;20473;-79
2022/04/18 11:09:29;;;;;;;2.65;1.75;;;;;;;18.26;31.93;96867.38;10347535;28;20555;-79
2022/04/18 11:14:55;;;;;;;1.55;1.45;;;;;;;18.27;32.04;96866.28;10344899;28;20046;-78
2022/04/18 11:20:31;;;;;;;2.08;1.60;;;;;;;18.26;31.93;96856.59;10374956;28;20048;-79
2022/04/18 11:25:58;;;;;;;1.77;1.45;;;;;;;18.24;31.92;96848.03;10375298;28;20053;-79
2022/04/18 11:31:21;;;;;;;2.03;1.60;;;;;;;18.24;31.82;96849.94;10332768;28;20049;-79
2022/04/18 11:36:41;;;;;;;1.50;1.30;;;;;;;18.23;31.77;96854.53;10358635;28;20095;-79
2022/04/18 11:42:02;;;;;;;1.90;1.50;;;;;;;18.23;31.85;96846.44;10343183;28;20128;-79
2022/04/18 11:47:28;;;;;;;1.40;1.30;;;;;;;18.23;31.57;96842.94;10368416;28;20034;-79
2022/04/18 11:52:49;;;;;;;1.52;1.40;;;;;;;18.21;31.61;96843.28;10353600;28;20057;-79
2022/04/18 11:58:09;;;;;;;1.60;1.50;;;;;;;18.21;31.99;96843.28;10336804;28;20066;-79
2022/04/18 12:09:13;;;;;;;1.65;1.38;;;;;;;18.21;31.94;96829.78;10372862;28;20049;-80
2022/04/18 12:14:33;;;;;;;1.48;1.38;;;;;;;18.20;31.83;96820.09;10315593;28;20122;-79
2022/04/18 12:19:53;;;;;;;1.70;1.48;;;;;;;18.21;31.95;96810.09;10338551;28;20046;-79
2022/04/18 12:25:23;;;;;;;1.63;1.13;;;;;;;18.20;31.89;96803.94;10355637;28;20041;-79
2022/04/18 12:30:43;;;;;;;1.45;1.35;;;;;;;18.20;31.69;96801.22;10342620;28;20042;-79
2022/04/18 12:36:03;;;;;;;1.33;1.23;;;;;;;18.19;31.69;96799.66;10368590;28;20049;-79
2022/04/18 12:41:33;;;;;;;1.50;1.40;;;;;;;18.18;31.81;96787.28;10368952;28;20046;-79
2022/04/18 12:46:54;;;;;;;1.40;1.30;;;;;;;18.18;31.60;96784.56;10357436;28;20065;-80
2022/04/18 12:52:13;;;;;;;1.20;1.10;;;;;;;18.17;31.50;96780.31;10359907;28;20041;-79
2022/04/18 12:57:33;;;;;;;1.55;1.45;;;;;;;18.15;31.71;96777.91;10367476;28;20050;-79
2022/04/18 13:03:06;;;;;;;1.60;1.50;;;;;;;18.14;31.77;96770.91;10353220;28;20160;-79
2022/04/18 13:08:26;;;;;;;1.70;1.23;;;;;;;18.16;31.79;96773.31;10342370;28;20046;-79
2022/04/18 13:13:46;;;;;;;1.77;1.33;;;;;;;18.14;31.68;96762.03;10355051;28;20046;-79
2022/04/18 13:19:10;;;;;;;1.65;1.23;;;;;;;18.14;31.82;96756.66;10313219;28;20527;-79
2022/04/18 13:24:30;;;;;;;1.30;1.13;;;;;;;18.14;31.67;96757.44;10341985;28;20046;-80
2022/04/18 13:29:49;;;;;;;1.75;1.23;;;;;;;18.15;31.82;96750.13;10355286;28;20038;-79
2022/04/18 13:35:09;;;;;;;4.03;1.35;;;;;;;18.17;31.83;96750.66;10348377;28;20587;-79
2022/04/18 13:40:29;;;;;;;1.95;1.40;;;;;;;18.15;31.59;96748.25;10349131;28;20488;-79
2022/04/18 13:45:49;;;;;;;1.65;1.27;;;;;;;18.19;31.83;96734.94;10349734;28;20054;-79
2022/04/18 13:51:08;;;;;;;1.98;1.25;;;;;;;18.20;31.77;96733.81;10383657;28;20065;-79
2022/04/18 13:56:29;;;;;;;1.52;1.30;;;;;;;18.22;31.50;96733.50;10365235;28;20125;-79
2022/04/18 14:01:49;;;;;;;2.42;1.48;;;;;;;18.24;31.34;96732.06;10354957;28;20069;-79
2022/04/18 14:07:09;;;;;;;2.63;1.30;;;;;;;18.26;31.29;96735.25;10357485;28;20049;-79
2022/04/18 14:12:29;;;;;;;1.65;1.15;;;;;;;18.28;31.35;96719.53;10371162;28;20050;-79
2022/04/18 14:23:26;;;;;;;1.73;1.30;;;;;;;18.33;31.08;96705.91;10377708;28;20069;-79
2022/04/18 14:28:46;;;;;;;1.73;1.40;;;;;;;18.38;31.13;96696.84;10377738;28;20385;-79
2022/04/18 14:34:06;;;;;;;1.70;1.50;;;;;;;18.41;30.95;96695.44;10370226;28;20038;-80
2022/04/18 14:39:26;;;;;;;1.38;1.10;;;;;;;18.46;30.59;96693.34;10357873;28;20046;-79
2022/04/18 14:44:45;;;;;;;1.40;1.20;;;;;;;18.50;30.66;96688.13;10358980;28;20554;-79
2022/04/18 14:50:05;;;;;;;3.13;1.10;;;;;;;18.54;30.60;96691.75;10361892;28;20042;-79
2022/04/18 14:55:25;;;;;;;1.60;1.25;;;;;;;18.56;30.50;96682.25;10362962;28;20053;-79
2022/04/18 15:00:45;;;;;;;1.65;1.40;;;;;;;18.61;30.63;96678.59;10360593;28;20128;-79
2022/04/18 15:06:06;;;;;;;1.80;1.50;;;;;;;18.63;30.39;96676.34;10376743;28;20034;-79
2022/04/18 15:11:25;;;;;;;1.40;1.10;;;;;;;18.65;30.11;96665.25;10362648;28;20042;-79
2022/04/18 15:16:44;;;;;;;1.90;1.33;;;;;;;18.69;30.39;96666.19;10369333;28;20038;-79
2022/04/18 15:22:04;;;;;;;4.38;2.65;;;;;;;18.71;29.54;96662.03;10369526;28;20042;-79
2022/04/18 15:27:24;;;;;;;2.10;1.42;;;;;;;18.75;29.41;96659.50;10371265;28;20499;-79
2022/04/18 15:32:43;;;;;;;2.75;1.88;;;;;;;18.77;29.42;96655.34;10339220;28;20044;-79
2022/04/18 15:38:04;;;;;;;1.92;1.50;;;;;;;18.82;29.45;96653.63;10356163;28;20401;-79
2022/04/18 15:43:23;;;;;;;1.58;1.40;;;;;;;18.85;29.16;96651.06;10359419;28;20044;-79
2022/04/18 15:48:43;;;;;;;1.88;1.40;;;;;;;18.89;28.89;96645.81;10343936;28;20104;-79
2022/04/18 15:54:03;;;;;;;1.55;1.40;;;;;;;18.94;28.63;96651.06;10361308;28;20048;-79
2022/04/18 15:59:22;;;;;;;1.55;1.40;;;;;;;18.97;28.80;96642.31;10360801;28;20443;-79
2022/04/18 16:04:42;;;;;;;1.35;1.20;;;;;;;18.99;28.88;96647.38;10366343;28;20041;-79
2022/04/18 16:10:01;;;;;;;1.60;1.30;;;;;;;19.01;28.88;96645.16;10352408;28;20049;-79
2022/04/18 16:15:21;;;;;;;1.50;1.27;;;;;;;19.06;29.00;96645.75;10356961;28;20515;-79
2022/04/18 16:20:43;;;;;;;2.90;1.50;;;;;;;19.09;28.79;96631.63;10339717;28;20489;-78
2022/04/18 16:26:03;;;;;;;1.55;1.40;;;;;;;19.12;28.35;96628.25;10351768;28;20045;-78
2022/04/18 16:37:01;;;;;;;2.40;1.43;;;;;;;19.19;28.54;96638.56;10362096;28;20096;-78
2022/04/18 16:47:58;;;;;;;1.77;1.20;;;;;;;19.27;28.26;96626.13;10330796;28;20049;-79
2022/04/18 16:53:18;;;;;;;2.55;1.70;;;;;;;19.30;28.10;96628.16;10349567;28;20042;-79
2022/04/18 16:58:39;;;;;;;1.70;1.35;;;;;;;19.34;26.42;96626.41;10351968;28;20057;-79
2022/04/18 17:04:01;;;;;;;3.45;1.60;;;;;;;19.38;27.14;96619.22;10376103;28;20122;-79
2022/04/18 17:09:20;;;;;;;2.85;1.50;;;;;;;19.39;27.99;96609.22;10355169;28;20504;-79
2022/04/18 17:14:40;;;;;;;2.05;1.35;;;;;;;19.41;28.45;96620.50;10379156;28;20117;-79
2022/04/18 17:20:00;;;;;;;3.13;1.40;;;;;;;19.44;28.81;96611.72;10374325;28;20045;-79
2022/04/18 17:25:20;;;;;;;4.07;1.48;;;;;;;19.47;28.58;96619.97;10352010;28;20043;-79
2022/04/18 17:30:40;;;;;;;2.65;1.50;;;;;;;19.51;29.49;96620.91;10360019;28;20053;-78
2022/04/18 17:35:59;;;;;;;6.65;1.60;;;;;;;19.54;29.70;96617.56;10379792;28;20033;-82
2022/04/18 17:41:22;;;;;;;5.05;1.70;;;;;;;19.60;30.24;96614.63;10370275;28;20065;-79
2022/04/18 17:46:41;;;;;;;3.45;1.60;;;;;;;19.64;30.67;96623.66;10387587;28;20046;-79
2022/04/18 17:52:01;;;;;;;5.15;1.58;;;;;;;19.67;30.69;96617.63;10362186;28;20083;-80
2022/04/18 17:57:21;;;;;;;3.15;1.60;;;;;;;19.70;30.71;96625.09;10367671;28;20060;-80
2022/04/18 18:02:42;;;;;;;2.15;1.55;;;;;;;19.73;31.10;96625.22;10347595;28;20124;-81
2022/04/18 18:08:01;;;;;;;4.80;1.90;;;;;;;19.74;31.69;96626.03;10384585;28;20076;-80
2022/04/18 18:13:21;;;;;;;5.13;1.70;;;;;;;19.76;32.21;96621.09;10363350;28;20054;-81
2022/04/18 18:18:41;;;;;;;4.40;1.70;;;;;;;19.80;32.36;96624.72;10362408;28;20132;-82
2022/04/18 18:24:00;;;;;;;6.13;1.65;;;;;;;19.82;32.48;96625.16;10360856;28;20061;-80
2022/04/18 18:29:20;;;;;;;3.70;1.50;;;;;;;19.86;33.02;96628.00;10356205;28;20034;-81
2022/04/18 18:34:40;;;;;;;4.45;2.03;;;;;;;19.87;33.25;96633.06;10360834;28;20034;-81
2022/04/18 18:40:00;;;;;;;4.97;1.63;;;;;;;19.90;33.31;96635.13;10337928;28;20044;-80
2022/04/18 18:45:19;;;;;;;5.07;1.60;;;;;;;19.92;33.46;96638.28;10368536;28;20045;-79
2022/04/18 18:56:19;;;;;;;4.18;1.58;;;;;;;20.02;33.85;96647.13;10358759;28;20045;-80
2022/04/18 19:01:39;;;;;;;3.33;1.30;;;;;;;20.05;33.90;96646.44;10347891;28;20121;-80
2022/04/18 19:06:59;;;;;;;3.70;1.77;;;;;;;20.09;34.01;96644.66;10353298;28;20096;-82
2022/04/18 19:12:20;;;;;;;4.05;1.60;;;;;;;20.10;34.32;96648.97;10355324;28;20182;-81
2022/04/18 19:28:58;;;;;;;3.58;1.60;;;;;;;20.22;34.57;96645.53;10355743;28;20499;-80
2022/04/18 19:34:20;;;;;;;3.85;1.40;;;;;;;20.23;34.51;96657.91;10356793;28;20049;-81
2022/04/18 19:39:39;;;;;;;3.22;1.30;;;;;;;20.25;34.60;96653.75;10350596;28;20050;-79
2022/04/18 19:44:59;;;;;;;4.65;1.48;;;;;;;20.25;34.47;96651.06;10357016;28;20042;-80
2022/04/18 19:50:19;;;;;;;4.18;1.50;;;;;;;20.27;34.69;96648.81;10360691;28;20045;-80
2022/04/18 19:55:40;;;;;;;3.95;1.70;;;;;;;20.29;34.69;96649.28;10373042;28;20221;-80
2022/04/18 20:01:00;;;;;;;2.13;1.38;;;;;;;20.30;34.56;96650.06;10357407;28;20107;-80
2022/04/18 20:06:20;;;;;;;3.47;1.20;;;;;;;20.30;34.62;96656.25;10361816;28;20069;-80
2022/04/18 20:11:39;;;;;;;3.05;1.30;;;;;;;20.32;34.62;96650.50;10353564;28;20048;-80
2022/04/18 20:16:59;;;;;;;5.68;1.85;;;;;;;20.33;34.44;96652.88;10365553;28;20066;-81
2022/04/18 20:22:19;;;;;;;2.65;1.30;;;;;;;20.35;34.52;96650.63;10363950;28;20038;-80
2022/04/18 20:27:40;;;;;;;3.88;1.60;;;;;;;20.35;34.16;96658.75;10324961;28;20057;-80
2022/04/18 20:33:03;;;;;;;3.33;1.48;;;;;;;20.35;34.09;96650.63;10376451;28;20044;-80
2022/04/18 20:38:22;;;;;;;2.67;1.40;;;;;;;20.37;33.90;96644.13;10361918;28;20396;-80
2022/04/18 20:43:42;;;;;;;2.72;1.40;;;;;;;20.37;33.83;96646.81;10349733;28;20088;-80
2022/04/18 20:49:03;;;;;;;3.13;1.60;;;;;;;20.37;33.90;96644.91;10357435;28;20037;-80
2022/04/18 21:00:01;;;;;;;2.67;1.80;;;;;;;20.37;33.96;96641.41;10358357;28;20072;-80
2022/04/18 21:05:21;;;;;;;2.17;1.27;;;;;;;20.37;33.86;96636.78;10372842;28;20049;-80
2022/04/18 21:10:40;;;;;;;2.38;1.33;;;;;;;20.37;33.77;96636.78;10355295;28;20052;-80
2022/04/18 21:16:01;;;;;;;3.17;1.50;;;;;;;20.38;33.80;96637.56;10383223;28;20045;-80
2022/04/18 21:21:21;;;;;;;4.45;1.60;;;;;;;20.35;33.98;96629.00;10375127;28;20067;-80
2022/04/18 21:26:42;;;;;;;2.20;1.55;;;;;;;20.36;33.89;96632.50;10384886;28;20053;-80
2022/04/18 21:32:01;;;;;;;3.22;1.55;;;;;;;20.35;33.88;96629.00;10355131;28;20041;-80
2022/04/18 21:37:21;;;;;;;2.30;1.55;;;;;;;20.35;34.02;96634.41;10374235;28;20451;-80
2022/04/18 21:42:42;;;;;;;2.25;1.40;;;;;;;20.34;33.95;96629.31;10352115;28;20049;-80
2022/04/18 21:48:03;;;;;;;2.63;1.30;;;;;;;20.34;34.03;96626.63;10355302;28;20374;-80
2022/04/18 21:53:23;;;;;;;2.55;1.25;;;;;;;20.33;34.05;96625.06;10355603;28;20435;-80
2022/04/18 21:58:42;;;;;;;1.60;1.27;;;;;;;20.32;34.11;96624.25;10346451;28;20489;-80
2022/04/18 22:04:05;;;;;;;2.50;1.30;;;;;;;20.31;34.09;96611.84;10364370;28;20042;-80
2022/04/18 22:09:25;;;;;;;1.80;1.30;;;;;;;20.30;34.12;96609.47;10352439;28;20069;-80
2022/04/18 22:14:44;;;;;;;2.33;1.48;;;;;;;20.30;34.21;96609.47;10344081;28;20042;-80
2022/04/18 22:25:43;;;;;;;;;;;;;;;20.28;34.22;96600.91;10341561;28;20046;-80
2022/04/18 22:31:03;;;;;;;1.70;1.40;;;;;;;20.27;34.14;96589.31;10388902;28;19921;-80
2022/04/18 22:36:22;;;;;;;2.15;1.25;;;;;;;20.26;34.12;96578.81;10374762;28;20050;-80
2022/04/18 22:41:42;;;;;;;1.60;1.40;;;;;;;20.25;34.17;96569.91;10342941;28;20042;-80
2022/04/18 22:47:03;;;;;;;2.20;1.40;;;;;;;20.24;34.19;96573.72;10374426;28;20044;-80
2022/04/18 22:52:23;;;;;;;1.77;1.17;;;;;;;20.24;34.25;96567.53;10361670;28;20116;-80
2022/04/18 22:57:43;;;;;;;1.63;1.10;;;;;;;20.22;34.25;96551.63;10355206;28;20061;-80
2022/04/18 23:03:03;;;;;;;1.73;1.25;;;;;;;20.21;34.38;96547.38;10374565;28;20038;-80
2022/04/18 23:08:32;;;;;;;2.88;1.27;;;;;;;20.20;34.38;96539.56;10377829;28;20042;-80
2022/04/18 23:13:51;;;;;;;2.17;1.23;;;;;;;20.19;34.42;96533.38;10359919;28;20034;-80
2022/04/18 23:19:11;;;;;;;1.73;1.17;;;;;;;20.18;34.37;96526.38;10342739;28;20077;-80
2022/04/18 23:24:31;;;;;;;1.83;1.20;;;;;;;20.17;34.34;96519.41;10351916;28;20042;-79
2022/04/18 23:29:50;;;;;;;1.30;1.13;;;;;;;20.18;34.46;96515.56;10362907;28;20045;-80
2022/04/18 23:35:14;;;;;;;1.40;1.20;;;;;;;20.15;34.41;96505.44;10371885;28;20537;-80
2022/04/18 23:46:12;;;;;;;1.23;1.10;;;;;;;20.13;34.53;96491.44;10354494;28;20401;-80
2022/04/18 23:51:31;;;;;;;1.40;1.15;;;;;;;20.12;34.35;96489.88;10341408;28;20049;-80
2022/04/18 23:56:51;;;;;;;1.25;1.15;;;;;;;20.10;34.46;96490.19;10367467;28;20072;-80
